createdAt,value
2019-03-16T00:01:17.973Z,1.37
2019-03-16T00:03:49.178Z,1.63
2019-03-16T00:06:20.133Z,1.40
2019-03-16T00:08:51.079Z,1.72
2019-03-16T00:11:21.962Z,1.43
2019-03-16T00:13:53.219Z,1.20
2019-03-16T00:16:24.127Z,1.30
2019-03-16T00:18:55.106Z,1.40
2019-03-16T00:21:26.466Z,1.20
2019-03-16T00:23:57.310Z,1.47
2019-03-16T00:26:39.322Z,1.10
2019-03-16T00:29:11.636Z,1.47
2019-03-16T00:31:42.963Z,1.30
2019-03-16T00:34:14.138Z,1.52
2019-03-16T00:36:45.566Z,1.10
2019-03-16T00:39:16.512Z,2.22
2019-03-16T00:41:47.374Z,1.13
2019-03-16T00:44:18.263Z,1.22
2019-03-16T00:46:49.631Z,1.20
2019-03-16T00:49:21.819Z,1.10
2019-03-16T00:51:52.696Z,0.90
2019-03-16T00:54:23.692Z,1.30
2019-03-16T00:56:54.537Z,1.67
2019-03-16T00:59:25.430Z,1.10
2019-03-16T01:01:56.885Z,1.23
2019-03-16T01:04:28.632Z,1.77
2019-03-16T01:06:59.894Z,0.83
2019-03-16T01:09:30.805Z,1.50
2019-03-16T01:12:02.072Z,1.50
2019-03-16T01:14:32.926Z,1.23
2019-03-16T01:17:04.184Z,1.40
2019-03-16T01:19:35.416Z,0.87
2019-03-16T01:22:07.089Z,1.70
2019-03-16T01:24:37.929Z,0.80
2019-03-16T01:27:09.606Z,1.40
2019-03-16T01:29:40.525Z,1.23
2019-03-16T01:32:11.709Z,0.82
2019-03-16T01:34:44.330Z,1.13
2019-03-16T01:37:15.425Z,1.00
2019-03-16T01:39:46.872Z,1.98
2019-03-16T01:42:17.983Z,1.30
2019-03-16T01:44:49.119Z,1.40
2019-03-16T01:47:19.957Z,1.13
2019-03-16T01:49:50.981Z,1.43
2019-03-16T01:52:21.939Z,1.10
2019-03-16T01:54:53.187Z,1.40
2019-03-16T01:57:24.378Z,1.60
2019-03-16T01:59:55.553Z,1.63
2019-03-16T02:02:32.617Z,1.37
2019-03-16T02:05:07.636Z,1.45
2019-03-16T02:07:38.720Z,1.13
2019-03-16T02:10:09.922Z,2.90
2019-03-16T02:12:40.814Z,1.05
2019-03-16T02:15:11.843Z,1.07
2019-03-16T02:17:42.703Z,0.83
2019-03-16T02:20:13.936Z,1.40
2019-03-16T02:22:46.382Z,1.23
2019-03-16T02:25:17.339Z,1.37
2019-03-16T02:27:48.436Z,1.32
2019-03-16T02:30:19.444Z,1.13
2019-03-16T02:32:50.305Z,1.80
2019-03-16T02:35:21.402Z,1.17
2019-03-16T02:37:53.053Z,1.23
2019-03-16T02:40:26.067Z,1.83
2019-03-16T02:42:57.022Z,1.13
2019-03-16T02:45:28.174Z,1.33
2019-03-16T02:47:59.765Z,1.13
2019-03-16T02:50:31.013Z,1.30
2019-03-16T02:53:03.288Z,1.57
2019-03-16T02:55:34.237Z,1.70
2019-03-16T02:58:05.427Z,1.40
2019-03-16T03:00:37.018Z,1.80
2019-03-16T03:03:08.630Z,1.40
2019-03-16T03:05:39.642Z,1.90
2019-03-16T03:08:10.920Z,2.00
2019-03-16T03:10:41.748Z,1.30
2019-03-16T03:13:13.836Z,1.13
2019-03-16T03:15:45.056Z,0.97
2019-03-16T03:18:17.035Z,1.30
2019-03-16T03:20:47.869Z,1.20
2019-03-16T03:23:18.892Z,1.98
2019-03-16T03:25:50.321Z,1.33
2019-03-16T03:28:21.446Z,1.20
2019-03-16T03:30:52.696Z,1.60
2019-03-16T03:33:23.536Z,1.53
2019-03-16T03:35:54.440Z,1.70
2019-03-16T03:38:25.730Z,0.90
2019-03-16T03:41:01.227Z,1.47
2019-03-16T03:43:29.740Z,1.67
2019-03-16T03:46:01.012Z,0.90
2019-03-16T03:48:32.099Z,1.23
2019-03-16T03:51:03.438Z,1.73
2019-03-16T03:53:34.749Z,1.75
2019-03-16T03:56:05.669Z,0.93
2019-03-16T03:58:36.630Z,1.47
2019-03-16T04:01:07.602Z,1.12
2019-03-16T04:03:38.795Z,0.88
2019-03-16T04:06:09.966Z,1.07
2019-03-16T04:08:41.212Z,1.30
2019-03-16T04:11:12.077Z,0.90
2019-03-16T04:13:42.941Z,0.73
2019-03-16T04:16:13.845Z,1.67
2019-03-16T04:18:45.162Z,1.17
2019-03-16T04:21:16.117Z,1.53
2019-03-16T04:23:47.497Z,1.50
2019-03-16T04:26:19.176Z,1.30
2019-03-16T04:28:50.454Z,1.03
2019-03-16T04:31:21.291Z,0.82
2019-03-16T04:33:52.131Z,1.45
2019-03-16T04:36:23.239Z,0.80
2019-03-16T04:38:54.078Z,1.20
2019-03-16T04:41:25.075Z,1.30
2019-03-16T04:43:56.181Z,1.13
2019-03-16T04:46:27.033Z,1.25
2019-03-16T04:48:58.137Z,1.47
2019-03-16T04:51:29.474Z,1.20
2019-03-16T04:54:00.668Z,1.60
2019-03-16T04:56:31.717Z,1.27
2019-03-16T04:59:02.840Z,1.37
2019-03-16T05:01:33.783Z,1.57
2019-03-16T05:04:04.819Z,1.70
2019-03-16T05:06:35.699Z,1.53
2019-03-16T05:09:07.495Z,1.77
2019-03-16T05:11:38.825Z,1.00
2019-03-16T05:14:10.762Z,1.10
2019-03-16T05:16:42.699Z,1.37
2019-03-16T05:19:13.625Z,1.13
2019-03-16T05:21:44.523Z,1.33
2019-03-16T05:24:15.471Z,1.70
2019-03-16T05:26:46.523Z,0.73
2019-03-16T05:29:17.452Z,1.60
2019-03-16T05:31:50.682Z,2.00
2019-03-16T05:34:21.126Z,1.20
2019-03-16T05:36:52.050Z,1.30
2019-03-16T05:39:23.570Z,1.23
2019-03-16T05:41:55.181Z,1.50
2019-03-16T05:44:26.125Z,1.30
2019-03-16T05:46:58.026Z,1.30
2019-03-16T05:49:29.184Z,1.00
2019-03-16T05:52:00.040Z,1.10
2019-03-16T05:54:31.864Z,1.53
2019-03-16T05:57:02.806Z,1.20
2019-03-16T05:59:34.033Z,1.60
2019-03-16T06:02:05.050Z,1.20
2019-03-16T06:04:36.226Z,1.17
2019-03-16T06:07:07.377Z,0.90
2019-03-16T06:09:38.521Z,1.00
2019-03-16T06:12:09.451Z,1.37
2019-03-16T06:14:40.360Z,1.40
2019-03-16T06:17:12.149Z,1.75
2019-03-16T06:19:43.573Z,1.77
2019-03-16T06:22:14.538Z,1.27
2019-03-16T06:24:45.521Z,1.30
2019-03-16T06:27:16.709Z,1.42
2019-03-16T06:29:47.618Z,2.07
2019-03-16T06:32:18.631Z,1.57
2019-03-16T06:34:49.528Z,1.00
2019-03-16T06:37:20.610Z,1.52
2019-03-16T06:39:51.535Z,1.90
2019-03-16T06:42:22.474Z,1.57
2019-03-16T06:44:53.306Z,1.80
2019-03-16T06:47:24.260Z,1.60
2019-03-16T06:49:55.186Z,1.20
2019-03-16T06:52:26.555Z,1.55
2019-03-16T06:54:57.560Z,1.17
2019-03-16T06:57:28.441Z,1.37
2019-03-16T06:59:59.960Z,2.00
2019-03-16T07:02:31.253Z,1.20
2019-03-16T07:05:04.376Z,1.90
2019-03-16T07:07:36.387Z,1.07
2019-03-16T07:10:08.386Z,1.10
2019-03-16T07:12:39.365Z,0.82
2019-03-16T07:15:10.352Z,1.00
2019-03-16T07:17:41.571Z,1.80
2019-03-16T07:20:13.648Z,0.82
2019-03-16T07:22:44.714Z,1.20
2019-03-16T07:25:16.022Z,0.80
2019-03-16T07:27:46.973Z,0.63
2019-03-16T07:30:18.803Z,1.00
2019-03-16T07:32:49.767Z,1.07
2019-03-16T07:35:20.982Z,0.50
2019-03-16T07:37:51.843Z,0.63
2019-03-16T07:40:22.764Z,0.90
2019-03-16T07:42:53.627Z,0.78
2019-03-16T07:45:24.535Z,0.50
2019-03-16T07:47:55.479Z,0.70
2019-03-16T07:53:02.995Z,0.90
2019-03-16T07:55:35.157Z,0.73
2019-03-16T07:58:07.501Z,0.40
2019-03-16T08:00:38.441Z,0.70
2019-03-16T08:03:09.412Z,0.60
2019-03-16T08:05:40.367Z,0.80
2019-03-16T08:08:11.343Z,1.20
2019-03-16T08:10:42.500Z,0.90
2019-03-16T08:13:14.417Z,0.80
2019-03-16T08:15:45.926Z,1.12
2019-03-16T08:18:16.872Z,0.70
2019-03-16T08:20:47.837Z,1.20
2019-03-16T08:23:18.743Z,0.80
2019-03-16T08:25:50.893Z,1.03
2019-03-16T08:28:21.806Z,1.25
2019-03-16T08:30:52.642Z,0.60
2019-03-16T08:33:23.838Z,0.87
2019-03-16T08:35:55.075Z,1.10
2019-03-16T08:38:25.945Z,0.60
2019-03-16T08:40:56.816Z,0.80
2019-03-16T08:43:27.695Z,1.10
2019-03-16T08:45:58.522Z,1.27
2019-03-16T08:48:29.429Z,0.90
2019-03-16T08:51:00.266Z,1.30
2019-03-16T08:53:31.126Z,0.70
2019-03-16T08:56:02.049Z,0.90
2019-03-16T08:58:34.779Z,0.82
2019-03-16T09:01:05.609Z,1.33
2019-03-16T09:03:43.522Z,0.37
2019-03-16T09:06:09.181Z,1.00
2019-03-16T09:08:40.043Z,0.80
2019-03-16T09:11:10.898Z,0.90
2019-03-16T09:13:41.946Z,0.97
2019-03-16T09:16:12.971Z,0.80
2019-03-16T09:18:44.057Z,1.10
2019-03-16T09:21:15.466Z,0.70
2019-03-16T09:23:46.468Z,0.80
2019-03-16T09:26:18.011Z,0.70
2019-03-16T09:28:59.635Z,1.53
2019-03-16T09:31:21.786Z,0.70
2019-03-16T09:33:52.926Z,1.10
2019-03-16T09:36:23.767Z,1.20
2019-03-16T09:38:54.628Z,0.90
2019-03-16T09:41:25.527Z,0.60
2019-03-16T09:43:56.640Z,0.90
2019-03-16T09:46:27.525Z,1.23
2019-03-16T09:48:58.658Z,0.85
2019-03-16T09:51:29.488Z,0.93
2019-03-16T09:54:00.425Z,0.97
2019-03-16T09:56:32.021Z,0.73
2019-03-16T09:59:02.866Z,0.70
2019-03-16T10:01:35.071Z,0.73
2019-03-16T10:04:05.916Z,0.90
2019-03-16T10:06:37.089Z,1.20
2019-03-16T10:09:09.107Z,1.00
2019-03-16T10:11:39.957Z,0.97
2019-03-16T10:14:10.780Z,1.20
2019-03-16T10:16:41.712Z,0.90
2019-03-16T10:19:14.051Z,1.10
2019-03-16T10:21:45.216Z,1.47
2019-03-16T10:24:16.048Z,1.47
2019-03-16T10:26:47.154Z,0.93
2019-03-16T10:29:18.411Z,1.10
2019-03-16T10:31:49.298Z,0.80
2019-03-16T10:34:20.152Z,1.37
2019-03-16T10:36:53.378Z,0.75
2019-03-16T10:39:24.489Z,1.27
2019-03-16T10:41:55.691Z,1.27
2019-03-16T10:44:26.519Z,0.87
2019-03-16T10:46:57.395Z,1.57
2019-03-16T10:49:28.715Z,0.70
2019-03-16T10:52:00.011Z,1.15
2019-03-16T10:54:31.099Z,0.97
2019-03-16T10:57:04.275Z,1.10
2019-03-16T10:59:37.300Z,1.40
2019-03-16T11:02:08.600Z,1.10
2019-03-16T11:04:39.417Z,1.70
2019-03-16T11:07:10.246Z,2.27
2019-03-16T11:09:41.572Z,1.70
2019-03-16T11:12:12.396Z,1.40
2019-03-16T11:14:43.382Z,1.20
2019-03-16T11:17:14.428Z,1.30
2019-03-16T11:19:46.003Z,1.93
2019-03-16T11:22:16.847Z,1.30
2019-03-16T11:24:48.267Z,1.85
2019-03-16T11:27:19.605Z,1.93
2019-03-16T11:29:50.713Z,1.90
2019-03-16T11:32:21.912Z,2.27
2019-03-16T11:34:52.759Z,2.40
2019-03-16T11:37:24.767Z,2.67
2019-03-16T11:39:55.948Z,2.87
2019-03-16T11:42:26.781Z,2.40
2019-03-16T11:44:57.721Z,2.67
2019-03-16T11:47:31.344Z,1.98
2019-03-16T11:50:04.258Z,2.33
2019-03-16T11:52:37.912Z,3.15
2019-03-16T11:55:09.205Z,2.73
2019-03-16T11:57:40.276Z,2.90
2019-03-16T12:00:11.289Z,2.77
2019-03-16T12:02:42.445Z,2.57
2019-03-16T12:05:13.507Z,3.27
2019-03-16T12:07:44.784Z,3.03
2019-03-16T12:10:16.420Z,2.97
2019-03-16T12:12:50.423Z,3.33
2019-03-16T12:15:21.379Z,2.97
2019-03-16T12:17:52.445Z,2.80
2019-03-16T12:20:23.416Z,2.93
2019-03-16T12:22:54.285Z,3.70
2019-03-16T12:25:25.271Z,3.25
2019-03-16T12:27:56.132Z,3.40
2019-03-16T12:30:27.124Z,2.90
2019-03-16T12:32:57.967Z,3.10
2019-03-16T12:35:28.917Z,2.80
2019-03-16T12:38:01.977Z,3.33
2019-03-16T12:40:36.301Z,2.80
2019-03-16T12:43:07.283Z,3.60
2019-03-16T12:45:38.147Z,2.63
2019-03-16T12:48:09.388Z,4.67
2019-03-16T12:50:41.657Z,3.10
2019-03-16T12:53:13.176Z,2.97
2019-03-16T12:55:44.332Z,4.58
2019-03-16T12:58:15.317Z,2.97
2019-03-16T13:00:46.358Z,2.40
2019-03-16T13:03:17.298Z,2.60
2019-03-16T13:05:48.173Z,3.50
2019-03-16T13:08:19.902Z,3.50
2019-03-16T13:10:50.759Z,2.93
2019-03-16T13:13:21.827Z,4.10
2019-03-16T13:15:52.875Z,3.70
2019-03-16T13:18:23.794Z,3.85
2019-03-16T13:21:01.222Z,3.87
2019-03-16T13:23:39.535Z,4.20
2019-03-16T13:26:14.115Z,5.00
2019-03-16T13:28:44.966Z,5.80
2019-03-16T13:31:15.936Z,6.87
2019-03-16T13:33:47.809Z,7.10
2019-03-16T13:36:18.668Z,7.00
2019-03-16T13:38:49.979Z,5.83
2019-03-16T13:41:21.348Z,4.37
2019-03-16T13:43:52.391Z,4.37
2019-03-16T13:46:23.513Z,4.27
2019-03-16T13:48:54.726Z,2.77
2019-03-16T13:51:25.541Z,3.43
2019-03-16T13:53:56.655Z,2.17
2019-03-16T13:56:27.597Z,2.12
2019-03-16T13:58:58.791Z,1.90
2019-03-16T14:01:29.673Z,1.90
2019-03-16T14:04:03.056Z,1.60
2019-03-16T14:06:33.470Z,2.13
2019-03-16T14:09:06.628Z,2.03
2019-03-16T14:11:41.135Z,2.12
2019-03-16T14:14:11.622Z,2.67
2019-03-16T14:16:42.510Z,2.57
2019-03-16T14:19:13.397Z,1.90
2019-03-16T14:21:44.440Z,1.77
2019-03-16T14:24:15.802Z,1.70
2019-03-16T14:26:46.977Z,1.90
2019-03-16T14:29:18.124Z,1.47
2019-03-16T14:31:51.265Z,1.90
2019-03-16T14:34:22.137Z,1.10
2019-03-16T14:36:53.113Z,1.27
2019-03-16T14:39:23.995Z,1.30
2019-03-16T14:41:55.232Z,2.93
2019-03-16T14:44:26.737Z,1.57
2019-03-16T14:46:57.596Z,0.93
2019-03-16T14:49:28.521Z,1.20
2019-03-16T14:51:59.643Z,1.10
2019-03-16T14:54:30.557Z,1.10
2019-03-16T14:57:02.076Z,0.80
2019-03-16T14:59:34.300Z,0.90
2019-03-16T15:02:05.228Z,1.10
2019-03-16T15:04:36.309Z,1.00
2019-03-16T15:07:07.165Z,1.17
2019-03-16T15:09:38.015Z,0.95
2019-03-16T15:12:08.923Z,1.20
2019-03-16T15:14:39.939Z,1.20
2019-03-16T15:17:10.920Z,1.17
2019-03-16T15:19:42.079Z,1.00
2019-03-16T15:22:13.429Z,1.03
2019-03-16T15:24:44.278Z,1.10
2019-03-16T15:27:16.062Z,0.70
2019-03-16T15:29:47.381Z,0.90
2019-03-16T15:32:18.450Z,0.93
2019-03-16T15:34:49.375Z,1.00
2019-03-16T15:37:20.913Z,0.98
2019-03-16T15:39:52.346Z,1.00
2019-03-16T15:42:23.305Z,0.70
2019-03-16T15:44:54.255Z,1.13
2019-03-16T15:47:25.228Z,0.93
2019-03-16T15:49:58.495Z,1.00
2019-03-16T15:52:29.110Z,1.30
2019-03-16T15:55:00.469Z,0.90
2019-03-16T15:57:31.717Z,1.30
2019-03-16T16:00:02.539Z,0.80
2019-03-16T16:02:34.901Z,1.10
2019-03-16T16:05:06.179Z,0.70
2019-03-16T16:07:37.086Z,0.70
2019-03-16T16:10:09.306Z,0.77
2019-03-16T16:12:40.433Z,0.70
2019-03-16T16:15:11.540Z,0.60
2019-03-16T16:17:42.448Z,0.60
2019-03-16T16:20:13.457Z,0.60
2019-03-16T16:22:44.364Z,0.60
2019-03-16T16:25:15.572Z,0.60
2019-03-16T16:27:46.418Z,0.63
2019-03-16T16:30:17.357Z,0.63
2019-03-16T16:32:48.249Z,0.50
2019-03-16T16:35:21.031Z,0.70
2019-03-16T16:37:51.933Z,0.67
2019-03-16T16:40:23.270Z,0.57
2019-03-16T16:42:54.597Z,0.70
2019-03-16T16:45:25.500Z,0.57
2019-03-16T16:47:56.589Z,0.60
2019-03-16T16:50:27.478Z,0.70
2019-03-16T16:52:58.689Z,1.00
2019-03-16T16:55:29.635Z,0.78
2019-03-16T16:58:00.465Z,0.70
2019-03-16T17:00:31.796Z,0.80
2019-03-16T17:03:02.977Z,0.53
2019-03-16T17:05:36.761Z,0.70
2019-03-16T17:08:07.605Z,1.00
2019-03-16T17:10:38.885Z,0.80
2019-03-16T17:13:09.817Z,1.00
2019-03-16T17:15:40.938Z,0.80
2019-03-16T17:18:12.221Z,0.93
2019-03-16T17:20:43.130Z,0.70
2019-03-16T17:23:14.022Z,0.70
2019-03-16T17:25:45.102Z,1.20
2019-03-16T17:28:16.325Z,1.13
2019-03-16T17:30:47.170Z,1.03
2019-03-16T17:33:18.118Z,1.10
2019-03-16T17:35:49.278Z,0.97
2019-03-16T17:38:20.167Z,1.20
2019-03-16T17:40:51.104Z,1.13
2019-03-16T17:43:22.024Z,0.80
2019-03-16T17:45:53.021Z,0.97
2019-03-16T17:48:24.650Z,1.40
2019-03-16T17:50:55.795Z,1.70
2019-03-16T17:53:26.667Z,1.57
2019-03-16T17:55:57.835Z,1.23
2019-03-16T17:58:29.006Z,1.13
2019-03-16T18:00:59.863Z,0.87
2019-03-16T18:03:30.819Z,1.30
2019-03-16T18:06:04.794Z,1.20
2019-03-16T18:08:36.068Z,0.90
2019-03-16T18:11:07.365Z,1.00
2019-03-16T18:13:38.235Z,0.87
2019-03-16T18:16:09.092Z,0.73
2019-03-16T18:18:39.932Z,0.97
2019-03-16T18:21:10.837Z,1.00
2019-03-16T18:23:41.686Z,0.98
2019-03-16T18:26:12.654Z,1.10
2019-03-16T18:28:43.764Z,1.00
2019-03-16T18:31:14.811Z,0.80
2019-03-16T18:33:45.708Z,0.90
2019-03-16T18:36:16.856Z,0.57
2019-03-16T18:38:47.785Z,0.90
2019-03-16T18:41:18.760Z,0.70
2019-03-16T18:43:49.833Z,0.50
2019-03-16T18:46:21.307Z,0.50
2019-03-16T18:48:52.252Z,0.77
2019-03-16T18:51:23.139Z,0.63
2019-03-16T18:53:53.980Z,0.60
2019-03-16T18:56:25.526Z,0.60
2019-03-16T18:58:56.416Z,0.53
2019-03-16T19:01:27.502Z,0.57
2019-03-16T19:03:58.424Z,0.50
2019-03-16T19:06:30.367Z,0.50
2019-03-16T19:09:02.758Z,0.42
2019-03-16T19:11:37.451Z,0.50
2019-03-16T19:14:08.354Z,0.40
2019-03-16T19:16:39.486Z,0.70
2019-03-16T19:19:10.375Z,0.90
2019-03-16T19:21:41.463Z,0.70
2019-03-16T19:24:12.377Z,0.80
2019-03-16T19:26:43.452Z,0.60
2019-03-16T19:29:16.817Z,0.50
2019-03-16T19:31:48.005Z,0.70
2019-03-16T19:34:19.394Z,0.60
2019-03-16T19:36:50.804Z,0.60
2019-03-16T19:39:24.999Z,0.80
2019-03-16T19:41:55.619Z,0.60
2019-03-16T19:44:26.568Z,0.80
2019-03-16T19:46:57.573Z,1.40
2019-03-16T19:49:28.450Z,1.03
2019-03-16T19:51:59.687Z,1.07
2019-03-16T19:54:30.700Z,0.57
2019-03-16T19:57:15.425Z,0.77
2019-03-16T19:59:38.716Z,0.77
2019-03-16T20:02:09.820Z,0.98
2019-03-16T20:04:40.859Z,0.88
2019-03-16T20:07:19.189Z,0.50
2019-03-16T20:09:44.938Z,0.80
2019-03-16T20:12:16.512Z,0.63
2019-03-16T20:14:47.517Z,0.80
2019-03-16T20:17:18.976Z,0.80
2019-03-16T20:19:49.920Z,0.97
2019-03-16T20:22:21.081Z,0.60
2019-03-16T20:24:52.345Z,0.70
2019-03-16T20:27:23.372Z,0.83
2019-03-16T20:29:55.670Z,0.80
2019-03-16T20:32:27.565Z,0.70
2019-03-16T20:34:58.750Z,1.00
2019-03-16T20:37:29.964Z,0.90
2019-03-16T20:40:01.064Z,0.90
2019-03-16T20:42:31.967Z,0.95
2019-03-16T20:45:05.696Z,1.10
2019-03-16T20:47:36.617Z,1.40
2019-03-16T20:50:09.495Z,1.17
2019-03-16T20:52:40.592Z,0.90
2019-03-16T20:55:11.514Z,1.15
2019-03-16T20:57:42.387Z,0.87
2019-03-16T21:00:13.341Z,1.10
2019-03-16T21:02:44.399Z,0.53
2019-03-16T21:05:15.352Z,0.80
2019-03-16T21:07:46.374Z,0.97
2019-03-16T21:10:17.478Z,1.00
2019-03-16T21:12:48.565Z,1.00
2019-03-16T21:15:22.557Z,0.70
2019-03-16T21:17:55.793Z,0.90
2019-03-16T21:20:26.537Z,0.90
2019-03-16T21:22:57.516Z,1.20
2019-03-16T21:25:28.435Z,0.93
2019-03-16T21:28:00.991Z,1.07
2019-03-16T21:30:33.843Z,0.80
2019-03-16T21:33:04.681Z,0.70
2019-03-16T21:35:35.611Z,0.93
2019-03-16T21:38:06.591Z,1.40
2019-03-16T21:40:38.704Z,0.70
2019-03-16T21:43:09.689Z,3.15
2019-03-16T21:45:40.575Z,1.10
2019-03-16T21:48:11.647Z,1.03
2019-03-16T21:50:42.583Z,1.13
2019-03-16T21:53:13.495Z,1.33
2019-03-16T21:55:44.560Z,1.00
2019-03-16T21:58:15.577Z,1.00
2019-03-16T22:00:46.563Z,0.90
2019-03-16T22:03:17.449Z,0.70
2019-03-16T22:05:48.343Z,1.05
2019-03-16T22:08:20.147Z,0.97
2019-03-16T22:10:51.320Z,1.13
2019-03-16T22:13:22.444Z,1.53
2019-03-16T22:15:53.414Z,1.42
2019-03-16T22:18:24.767Z,0.87
2019-03-16T22:20:55.601Z,1.27
2019-03-16T22:23:26.454Z,1.13
2019-03-16T22:25:59.736Z,1.10
2019-03-16T22:28:30.585Z,1.40
2019-03-16T22:31:03.824Z,1.30
2019-03-16T22:33:35.030Z,1.70
2019-03-16T22:36:05.884Z,0.93
2019-03-16T22:38:36.784Z,1.10
2019-03-16T22:41:07.936Z,1.10
2019-03-16T22:43:38.735Z,0.82
2019-03-16T22:46:10.239Z,1.57
2019-03-16T22:48:41.394Z,1.07
2019-03-16T22:51:12.800Z,1.10
2019-03-16T22:53:43.640Z,1.20
2019-03-16T22:56:14.553Z,1.50
2019-03-16T22:58:45.491Z,1.27
2019-03-16T23:01:16.660Z,1.67
2019-03-16T23:03:47.910Z,1.87
2019-03-16T23:06:18.805Z,1.67
2019-03-16T23:08:51.176Z,2.27
2019-03-16T23:11:22.005Z,2.33
2019-03-16T23:13:52.931Z,2.12
2019-03-16T23:16:24.062Z,2.40
2019-03-16T23:18:54.956Z,2.23
2019-03-16T23:21:26.382Z,1.63
2019-03-16T23:23:57.501Z,2.13
2019-03-16T23:26:38.031Z,1.90
2019-03-16T23:29:01.556Z,1.80
2019-03-16T23:31:32.425Z,1.97
2019-03-16T23:34:18.336Z,2.30
2019-03-16T23:36:38.557Z,1.55
2019-03-16T23:39:09.510Z,2.63
2019-03-16T23:41:40.339Z,1.47
2019-03-16T23:44:11.654Z,2.83
2019-03-16T23:46:42.578Z,2.50
2019-03-16T23:49:14.852Z,1.83
2019-03-16T23:51:45.998Z,1.87
2019-03-16T23:54:16.876Z,1.90
2019-03-16T23:56:47.835Z,2.02
2019-03-16T23:59:18.740Z,2.27
